Time;durP1;ratioP1;P1;durP2;ratioP2;P2;SDS_P1;SDS_P2;PMS_P1;PMS_P2;Temp;Humidity;BMP_temperature;BMP_pressure;BME280_temperature;BME280_humidity;BME280_pressure;Samples;Min_cycle;Max_cycle;Signal;HPM_P1;HPM_P2
2023/08/13 00:00:39;;;;;;;14.88;3.20;;;17.00;99.90;;;;;;5074860;28;20083;-73
2023/08/13 00:03:04;;;;;;;9.60;2.38;;;17.10;99.90;;;;;;5075122;28;20047;-73
2023/08/13 00:05:30;;;;;;;9.65;2.55;;;17.00;99.90;;;;;;5074786;28;20516;-72
2023/08/13 00:07:56;;;;;;;14.35;3.03;;;17.00;99.90;;;;;;5058126;28;20033;-72
2023/08/13 00:10:22;;;;;;;11.88;2.80;;;17.00;99.90;;;;;;5073949;28;20146;-72
2023/08/13 00:12:47;;;;;;;10.57;2.63;;;17.00;99.90;;;;;;5073509;28;20094;-72
2023/08/13 00:15:13;;;;;;;10.18;2.75;;;17.00;99.90;;;;;;5073730;28;20177;-72
2023/08/13 00:17:39;;;;;;;11.85;2.95;;;17.00;99.90;;;;;;5056785;28;20543;-72
2023/08/13 00:20:05;;;;;;;9.57;2.60;;;17.00;99.90;;;;;;5056617;28;20044;-72
2023/08/13 00:22:31;;;;;;;12.35;2.70;;;17.00;99.90;;;;;;5073602;28;20062;-72
2023/08/13 00:24:57;;;;;;;11.63;3.40;;;17.00;99.90;;;;;;5073365;28;20504;-72
2023/08/13 00:27:23;;;;;;;11.40;2.75;;;17.00;99.90;;;;;;5073359;28;20042;-72
2023/08/13 00:29:49;;;;;;;14.30;3.33;;;17.00;99.90;;;;;;5073115;28;20032;-72
2023/08/13 00:32:14;;;;;;;13.10;3.45;;;17.00;99.90;;;;;;5073163;28;20044;-72
2023/08/13 00:34:40;;;;;;;10.88;2.80;;;17.00;99.90;;;;;;5073199;28;20048;-72
2023/08/13 00:37:06;;;;;;;15.43;3.20;;;17.00;99.90;;;;;;5073434;28;20044;-72
2023/08/13 00:39:31;;;;;;;10.63;2.95;;;17.00;99.90;;;;;;5073255;28;20118;-73
2023/08/13 00:41:57;;;;;;;11.88;2.45;;;17.00;99.90;;;;;;5073302;28;20038;-73
2023/08/13 00:44:23;;;;;;;11.73;2.72;;;16.90;99.90;;;;;;5073047;28;20516;-73
2023/08/13 00:46:49;;;;;;;10.48;2.97;;;16.90;99.90;;;;;;5073208;28;20093;-72
2023/08/13 00:49:15;;;;;;;12.88;3.03;;;16.90;99.90;;;;;;5073246;28;20550;-72
2023/08/13 00:51:41;;;;;;;14.07;3.33;;;16.80;99.90;;;;;;5072839;28;20037;-72
2023/08/13 00:54:08;;;;;;;10.57;3.03;;;16.80;99.90;;;;;;5074292;28;20032;-72
2023/08/13 00:56:35;;;;;;;13.32;3.53;;;16.70;99.90;;;;;;5072865;28;20051;-72
2023/08/13 00:59:00;;;;;;;15.90;3.15;;;16.70;99.90;;;;;;5072773;28;20044;-72
2023/08/13 01:01:26;;;;;;;10.20;2.88;;;16.70;99.90;;;;;;5072972;28;20035;-72
2023/08/13 01:03:52;;;;;;;13.25;2.80;;;16.60;99.90;;;;;;5072717;28;20536;-72
2023/08/13 01:06:43;;;;;;;12.95;3.28;;;16.60;99.90;;;;;;5072960;28;20079;-72
2023/08/13 01:09:41;;;;;;;10.60;3.20;;;16.60;99.90;;;;;;5033089;28;1134741;-72
2023/08/13 01:12:16;;;;;;;14.65;3.38;;;16.60;99.90;;;;;;5074698;28;20044;-72
2023/08/13 01:15:05;;;;;;;9.48;2.92;;;16.50;99.90;;;;;;5073595;28;20043;-72
2023/08/13 01:17:33;;;;;;;14.85;3.70;;;16.50;99.90;;;;;;5073575;28;20036;-72
2023/08/13 01:19:59;;;;;;;13.43;2.95;;;16.50;99.90;;;;;;5073529;28;20119;-72
2023/08/13 01:22:27;;;;;;;14.50;3.13;;;16.50;99.90;;;;;;5073589;28;20044;-72
2023/08/13 01:24:53;;;;;;;12.60;3.15;;;16.40;99.90;;;;;;5073378;28;20054;-72
2023/08/13 01:27:32;;;;;;;16.30;2.83;;;16.40;99.90;;;;;;5056580;28;20497;-72
2023/08/13 01:30:14;;;;;;;13.68;3.33;;;16.40;99.90;;;;;;5074365;28;20059;-72
2023/08/13 01:32:47;;;;;;;15.60;3.20;;;16.40;99.90;;;;;;5073476;28;20064;-72
2023/08/13 01:35:14;;;;;;;10.35;3.20;;;16.40;99.90;;;;;;5073205;28;20060;-72
2023/08/13 01:37:42;;;;;;;18.13;3.50;;;16.40;99.90;;;;;;5073092;28;20083;-72
2023/08/13 01:40:08;;;;;;;13.00;3.13;;;16.40;99.90;;;;;;5072203;28;20040;-72
2023/08/13 01:42:33;;;;;;;12.20;2.95;;;16.30;99.90;;;;;;5073185;28;20044;-72
2023/08/13 01:44:59;;;;;;;14.73;3.33;;;16.30;99.90;;;;;;5072949;28;20386;-72
2023/08/13 01:47:24;;;;;;;15.65;3.05;;;16.40;99.90;;;;;;5073191;28;20043;-72
2023/08/13 01:49:50;;;;;;;13.32;3.15;;;16.30;99.90;;;;;;5072835;28;20413;-72
2023/08/13 01:52:16;;;;;;;14.98;3.28;;;16.40;99.90;;;;;;5073122;28;20118;-72
2023/08/13 01:54:41;;;;;;;15.02;3.00;;;16.40;99.90;;;;;;5072756;28;20390;-72
2023/08/13 01:57:07;;;;;;;15.27;3.20;;;16.40;99.90;;;;;;5072683;28;20036;-72
2023/08/13 01:59:32;;;;;;;15.63;3.28;;;16.40;99.90;;;;;;5072574;28;20045;-72
2023/08/13 02:01:58;;;;;;;15.85;3.50;;;16.40;99.90;;;;;;5072576;28;20105;-72
2023/08/13 02:04:23;;;;;;;19.60;3.53;;;16.40;99.90;;;;;;5072606;28;20071;-72
2023/08/13 02:06:49;;;;;;;13.52;3.42;;;16.40;99.90;;;;;;5072778;28;20127;-72
2023/08/13 02:09:15;;;;;;;15.85;3.50;;;16.30;99.90;;;;;;5072638;28;20032;-72
2023/08/13 02:11:40;;;;;;;15.48;3.40;;;16.30;99.90;;;;;;5072684;28;20490;-72
2023/08/13 02:14:06;;;;;;;18.13;4.05;;;16.30;99.90;;;;;;5072427;28;20503;-72
2023/08/13 02:16:31;;;;;;;13.30;2.90;;;16.30;99.90;;;;;;5072344;28;20036;-72
2023/08/13 02:18:57;;;;;;;16.25;3.55;;;16.20;99.90;;;;;;5072335;28;20066;-72
2023/08/13 02:21:22;;;;;;;16.95;3.38;;;16.20;99.90;;;;;;5072161;28;20041;-72
2023/08/13 02:23:48;;;;;;;16.60;3.13;;;16.20;99.90;;;;;;5072264;28;20071;-72
2023/08/13 02:26:14;;;;;;;15.55;3.80;;;16.20;99.90;;;;;;5072466;28;20037;-72
2023/08/13 02:28:41;;;;;;;13.13;2.92;;;16.20;99.90;;;;;;5072210;28;20045;-72
2023/08/13 02:31:07;;;;;;;14.05;2.88;;;16.10;99.90;;;;;;5072370;28;20044;-72
2023/08/13 02:33:33;;;;;;;16.67;3.60;;;16.10;99.90;;;;;;5072633;28;20508;-72
2023/08/13 02:35:59;;;;;;;14.27;3.33;;;16.10;99.90;;;;;;5072028;28;20056;-72
2023/08/13 02:38:24;;;;;;;13.10;2.97;;;16.10;99.90;;;;;;5072286;28;20043;-72
2023/08/13 02:40:50;;;;;;;14.77;3.20;;;16.10;99.90;;;;;;5072030;28;20559;-72
2023/08/13 02:43:15;;;;;;;11.48;2.70;;;16.10;99.90;;;;;;5072177;28;20040;-72
2023/08/13 02:45:41;;;;;;;15.40;3.35;;;16.10;99.90;;;;;;5071971;28;20075;-72
2023/08/13 02:48:07;;;;;;;17.30;4.10;;;16.10;99.90;;;;;;5071956;28;20036;-72
2023/08/13 02:50:32;;;;;;;16.33;3.40;;;16.10;99.90;;;;;;5071920;28;20117;-72
2023/08/13 02:52:58;;;;;;;13.25;3.17;;;16.10;99.90;;;;;;5071688;28;20044;-72
2023/08/13 02:55:23;;;;;;;14.52;3.20;;;16.00;99.90;;;;;;5071813;28;20080;-72
2023/08/13 02:57:49;;;;;;;22.30;3.65;;;16.00;99.90;;;;;;5071848;28;20036;-72
2023/08/13 03:00:15;;;;;;;16.48;3.25;;;16.00;99.90;;;;;;5071739;28;20044;-72
2023/08/13 03:02:40;;;;;;;14.15;3.22;;;16.00;99.90;;;;;;5071736;28;20036;-72
2023/08/13 03:05:06;;;;;;;22.02;3.92;;;16.00;99.90;;;;;;5071788;28;20114;-72
2023/08/13 03:07:32;;;;;;;11.32;2.83;;;16.00;99.90;;;;;;5054998;28;20044;-72
2023/08/13 03:09:57;;;;;;;13.23;3.15;;;16.00;99.90;;;;;;5071553;28;20045;-72
2023/08/13 03:12:23;;;;;;;13.60;3.50;;;16.10;99.90;;;;;;5071628;28;20079;-72
2023/08/13 03:14:49;;;;;;;14.13;3.53;;;16.00;99.90;;;;;;5071947;28;20066;-72
2023/08/13 03:17:14;;;;;;;15.98;3.20;;;16.10;99.90;;;;;;5071687;28;20468;-72
2023/08/13 03:19:40;;;;;;;12.48;3.42;;;16.00;99.90;;;;;;5055079;28;20045;-72
2023/08/13 03:22:05;;;;;;;13.98;3.50;;;16.00;99.90;;;;;;5071543;28;20493;-72
2023/08/13 03:24:31;;;;;;;12.85;3.78;;;16.00;99.90;;;;;;5071852;28;20047;-72
2023/08/13 03:26:56;;;;;;;14.43;3.78;;;16.00;99.90;;;;;;5071582;28;20126;-72
2023/08/13 03:29:22;;;;;;;13.57;3.30;;;16.00;99.90;;;;;;5071785;28;20044;-72
2023/08/13 03:31:48;;;;;;;17.13;3.85;;;16.00;99.90;;;;;;5071401;28;20064;-72
2023/08/13 03:34:13;;;;;;;13.35;3.50;;;16.00;99.90;;;;;;5071519;28;20037;-72
2023/08/13 03:36:39;;;;;;;19.05;3.83;;;16.00;99.90;;;;;;5071465;28;20045;-72
2023/08/13 03:39:04;;;;;;;15.63;4.03;;;16.00;99.90;;;;;;5071446;28;20029;-72
2023/08/13 03:41:30;;;;;;;16.85;3.70;;;15.90;99.90;;;;;;5054885;28;20505;-72
2023/08/13 03:43:55;;;;;;;13.95;3.63;;;15.90;99.90;;;;;;5071391;28;20440;-72
2023/08/13 03:46:21;;;;;;;21.95;4.28;;;15.90;99.90;;;;;;5071617;28;20069;-72
2023/08/13 03:48:47;;;;;;;19.67;4.30;;;15.90;99.90;;;;;;5054628;28;20481;-72
2023/08/13 03:51:12;;;;;;;13.77;3.50;;;15.90;99.90;;;;;;5071500;28;20066;-72
2023/08/13 03:53:38;;;;;;;20.90;3.60;;;15.90;99.90;;;;;;5071299;28;20036;-72
2023/08/13 03:56:07;;;;;;;16.30;3.78;;;15.80;99.90;;;;;;5071235;28;20085;-72
2023/08/13 03:58:34;;;;;;;13.95;3.92;;;15.90;99.90;;;;;;5071233;28;20050;-72
2023/08/13 04:01:07;;;;;;;16.63;3.47;;;15.80;99.90;;;;;;5071187;28;20044;-72
2023/08/13 04:03:33;;;;;;;12.68;3.40;;;15.80;99.90;;;;;;5072144;28;20498;-72
2023/08/13 04:05:59;;;;;;;11.50;3.15;;;15.80;99.90;;;;;;5074827;28;20040;-72
2023/08/13 04:08:25;;;;;;;14.40;3.60;;;15.70;99.90;;;;;;5075099;28;20181;-72
2023/08/13 04:10:51;;;;;;;11.80;3.80;;;15.80;99.90;;;;;;5074965;28;20546;-72
2023/08/13 04:13:17;;;;;;;19.25;3.75;;;15.80;99.90;;;;;;5074916;28;20497;-72
2023/08/13 04:15:42;;;;;;;12.52;3.53;;;15.70;99.90;;;;;;5074701;28;20052;-72
2023/08/13 04:18:08;;;;;;;12.60;3.92;;;15.80;99.90;;;;;;5074645;28;20044;-72
2023/08/13 04:20:36;;;;;;;14.80;4.07;;;15.80;99.90;;;;;;5074561;28;20036;-72
2023/08/13 04:23:01;;;;;;;16.60;4.03;;;15.90;99.90;;;;;;5074508;28;20086;-72
2023/08/13 04:25:27;;;;;;;15.55;3.85;;;15.90;99.90;;;;;;5074791;28;20040;-72
2023/08/13 04:27:52;;;;;;;15.15;3.58;;;15.90;99.90;;;;;;5074782;28;20036;-72
2023/08/13 04:30:18;;;;;;;17.30;3.92;;;15.90;99.90;;;;;;5074486;28;20663;-72
2023/08/13 04:32:55;;;;;;;13.93;3.75;;;15.90;99.90;;;;;;5074573;28;20044;-72
2023/08/13 04:35:22;;;;;;;12.50;3.05;;;16.00;99.90;;;;;;5074671;28;20060;-72
2023/08/13 04:37:49;;;;;;;15.57;3.63;;;16.00;99.90;;;;;;5074536;28;20048;-72
2023/08/13 04:40:14;;;;;;;14.68;3.70;;;16.00;99.90;;;;;;5074139;28;20413;-72
2023/08/13 04:42:41;;;;;;;12.32;3.67;;;16.10;99.90;;;;;;5074404;28;20093;-72
2023/08/13 04:45:07;;;;;;;14.80;4.00;;;16.10;99.90;;;;;;5074442;28;20048;-72
2023/08/13 04:47:32;;;;;;;15.25;3.30;;;16.10;99.90;;;;;;5074278;28;20402;-72
2023/08/13 04:49:58;;;;;;;11.48;3.53;;;16.10;99.90;;;;;;5074390;28;20059;-72
2023/08/13 04:52:23;;;;;;;15.57;4.03;;;16.10;99.90;;;;;;5074208;28;20489;-72
2023/08/13 04:54:49;;;;;;;13.68;3.65;;;16.10;99.90;;;;;;5074012;28;20053;-72
2023/08/13 04:57:15;;;;;;;12.45;3.88;;;16.20;99.90;;;;;;5074162;28;20048;-72
2023/08/13 04:59:40;;;;;;;10.88;3.90;;;16.20;99.90;;;;;;5073780;28;20051;-72
2023/08/13 05:02:06;;;;;;;14.85;4.07;;;16.20;99.90;;;;;;5073793;28;20115;-72
2023/08/13 05:04:31;;;;;;;13.55;3.42;;;16.30;99.90;;;;;;5074060;28;20039;-72
2023/08/13 05:06:57;;;;;;;14.35;3.80;;;16.30;99.90;;;;;;5073962;28;20374;-72
2023/08/13 05:09:23;;;;;;;15.60;3.35;;;16.30;99.90;;;;;;5073553;28;20041;-72
2023/08/13 05:11:48;;;;;;;12.05;3.97;;;16.30;99.90;;;;;;5073919;28;20045;-72
2023/08/13 05:14:14;;;;;;;13.35;4.18;;;16.40;99.90;;;;;;5073283;28;20497;-72
2023/08/13 05:16:39;;;;;;;18.02;3.53;;;16.30;99.90;;;;;;5072740;28;20074;-72
2023/08/13 05:19:05;;;;;;;13.65;3.05;;;16.30;99.90;;;;;;5073507;28;20167;-72
2023/08/13 05:21:31;;;;;;;14.38;4.25;;;16.40;99.90;;;;;;5073327;28;20048;-72
2023/08/13 05:23:56;;;;;;;15.15;3.72;;;16.40;99.90;;;;;;5073366;28;20037;-72
2023/08/13 05:26:22;;;;;;;17.48;3.90;;;16.40;99.90;;;;;;5073350;28;20033;-72
2023/08/13 05:28:47;;;;;;;13.52;3.83;;;16.50;99.90;;;;;;5073324;28;20041;-72
2023/08/13 05:31:13;;;;;;;16.75;3.70;;;16.50;99.90;;;;;;5073149;28;20044;-72
2023/08/13 05:33:39;;;;;;;18.27;3.33;;;16.50;99.90;;;;;;5073199;28;20071;-72
2023/08/13 05:36:05;;;;;;;11.10;3.70;;;16.50;99.90;;;;;;5074478;28;20036;-72
2023/08/13 05:38:32;;;;;;;13.55;3.58;;;16.60;99.90;;;;;;5073060;28;20090;-72
2023/08/13 05:40:57;;;;;;;16.45;3.85;;;16.60;99.90;;;;;;5072949;28;20044;-72
2023/08/13 05:43:23;;;;;;;14.45;3.85;;;16.70;99.90;;;;;;5072942;28;20086;-72
2023/08/13 05:45:49;;;;;;;17.13;3.28;;;16.80;99.90;;;;;;5072956;28;20036;-72
2023/08/13 05:48:14;;;;;;;15.38;3.50;;;16.80;99.90;;;;;;5073208;28;20066;-72
2023/08/13 05:50:40;;;;;;;13.65;3.80;;;16.80;99.90;;;;;;5072909;28;20560;-72
2023/08/13 05:53:05;;;;;;;12.15;3.50;;;16.80;99.90;;;;;;5072737;28;20043;-72
2023/08/13 05:55:31;;;;;;;13.27;3.50;;;16.70;99.90;;;;;;5072810;28;20040;-72
2023/08/13 05:57:57;;;;;;;10.68;3.60;;;16.70;99.90;;;;;;5072748;28;20063;-72
2023/08/13 06:00:23;;;;;;;12.15;3.33;;;16.60;99.90;;;;;;5072629;28;20043;-72
2023/08/13 06:02:48;;;;;;;16.95;4.43;;;16.60;99.90;;;;;;5072627;28;20090;-72
2023/08/13 06:05:14;;;;;;;15.15;4.50;;;16.60;99.90;;;;;;5072932;28;20126;-72
2023/08/13 06:07:40;;;;;;;15.05;3.70;;;16.60;99.90;;;;;;5072548;28;20040;-72
2023/08/13 06:10:06;;;;;;;13.68;3.33;;;16.70;99.90;;;;;;5072592;28;20047;-72
2023/08/13 06:12:32;;;;;;;13.38;3.80;;;16.70;99.90;;;;;;5072411;28;20128;-72
2023/08/13 06:14:58;;;;;;;13.38;3.70;;;16.80;99.90;;;;;;5072696;28;20041;-72
2023/08/13 06:17:24;;;;;;;15.95;3.92;;;16.90;99.90;;;;;;5072646;28;20424;-72
2023/08/13 06:19:49;;;;;;;18.17;3.90;;;16.90;99.90;;;;;;5072462;28;20040;-72
2023/08/13 06:22:15;;;;;;;17.02;4.00;;;16.90;99.90;;;;;;5072447;28;20047;-72
2023/08/13 06:24:41;;;;;;;18.40;4.03;;;16.90;99.90;;;;;;5072531;28;20499;-72
2023/08/13 06:27:06;;;;;;;13.35;3.83;;;16.90;99.90;;;;;;5071833;28;20559;-72
2023/08/13 06:29:32;;;;;;;18.13;3.92;;;17.00;99.90;;;;;;5072411;28;20039;-72
2023/08/13 06:31:58;;;;;;;16.33;4.28;;;17.10;99.90;;;;;;5072095;28;20497;-72
2023/08/13 06:34:23;;;;;;;15.70;3.95;;;17.20;99.90;;;;;;5055501;28;20040;-72
2023/08/13 06:36:49;;;;;;;14.90;3.72;;;17.30;99.90;;;;;;5072079;28;20048;-72
2023/08/13 06:39:15;;;;;;;12.15;3.45;;;17.40;99.90;;;;;;5071995;28;20047;-72
2023/08/13 06:41:40;;;;;;;16.02;3.95;;;17.40;99.90;;;;;;5055326;28;20036;-72
2023/08/13 06:44:06;;;;;;;13.77;3.72;;;17.50;99.90;;;;;;5072033;28;20037;-72
2023/08/13 06:46:32;;;;;;;14.98;3.53;;;17.60;99.90;;;;;;5071959;28;20040;-72
2023/08/13 06:48:58;;;;;;;13.38;4.20;;;17.70;99.90;;;;;;5072125;28;20036;-73
2023/08/13 06:51:23;;;;;;;13.95;4.07;;;17.80;99.90;;;;;;5071835;28;20032;-72
2023/08/13 06:53:49;;;;;;;15.25;4.40;;;17.80;99.90;;;;;;5071914;28;20052;-72
2023/08/13 06:56:15;;;;;;;17.83;4.47;;;17.80;99.90;;;;;;5055165;28;20132;-72
2023/08/13 06:58:40;;;;;;;12.05;3.88;;;17.80;99.90;;;;;;5072090;28;20036;-72
2023/08/13 07:01:06;;;;;;;13.18;3.97;;;17.80;99.90;;;;;;5071799;28;20090;-72
2023/08/13 07:03:31;;;;;;;18.33;3.92;;;17.90;99.90;;;;;;5071732;28;20408;-72
2023/08/13 07:05:57;;;;;;;17.65;3.97;;;17.90;99.90;;;;;;5071758;28;20036;-72
2023/08/13 07:08:23;;;;;;;14.52;4.00;;;18.00;99.90;;;;;;5071770;28;20098;-72
2023/08/13 07:10:53;;;;;;;14.15;3.95;;;18.10;99.90;;;;;;5071655;28;20036;-72
2023/08/13 07:13:18;;;;;;;14.30;3.58;;;18.30;99.90;;;;;;5071620;28;20163;-72
2023/08/13 07:15:44;;;;;;;17.40;4.18;;;18.30;99.90;;;;;;5071981;28;20048;-72
2023/08/13 07:18:10;;;;;;;12.80;4.00;;;18.40;99.90;;;;;;5071710;28;20127;-72
2023/08/13 07:20:36;;;;;;;14.85;3.97;;;18.40;99.90;;;;;;5071583;28;20045;-72
2023/08/13 07:23:04;;;;;;;18.42;4.47;;;18.50;99.90;;;;;;5071522;28;20044;-72
2023/08/13 07:25:29;;;;;;;12.65;3.90;;;18.60;99.90;;;;;;5071586;28;20087;-72
2023/08/13 07:27:55;;;;;;;15.15;4.10;;;18.60;99.90;;;;;;5055205;28;20076;-72
2023/08/13 07:30:21;;;;;;;15.00;4.03;;;18.70;99.90;;;;;;5071615;28;20517;-72
2023/08/13 07:32:46;;;;;;;11.98;3.58;;;18.70;99.90;;;;;;5071588;28;20048;-72
2023/08/13 07:35:12;;;;;;;14.48;3.83;;;18.90;99.90;;;;;;5071898;28;20057;-72
2023/08/13 07:37:38;;;;;;;12.27;3.25;;;19.00;99.90;;;;;;5071514;28;20489;-72
2023/08/13 07:40:07;;;;;;;9.38;3.28;;;19.00;99.90;;;;;;5074896;28;20501;-72
2023/08/13 07:42:34;;;;;;;9.20;3.25;;;19.00;99.90;;;;;;5075229;28;20162;-73
2023/08/13 07:45:00;;;;;;;13.55;3.15;;;19.00;99.90;;;;;;5075236;28;20036;-72
2023/08/13 07:47:25;;;;;;;11.73;2.78;;;19.00;99.90;;;;;;5075249;28;20041;-72
2023/08/13 07:49:51;;;;;;;15.30;3.20;;;19.00;99.90;;;;;;5058784;28;20036;-72
2023/08/13 07:52:17;;;;;;;10.38;2.38;;;19.00;99.90;;;;;;5075321;28;20044;-72
2023/08/13 07:54:42;;;;;;;12.50;2.60;;;19.00;99.90;;;;;;5075134;28;20417;-72
2023/08/13 07:57:08;;;;;;;10.85;2.40;;;19.00;99.90;;;;;;5075312;28;20159;-72
2023/08/13 07:59:33;;;;;;;10.80;2.30;;;19.20;99.90;;;;;;5074907;28;20037;-72
2023/08/13 08:01:59;;;;;;;10.20;2.10;;;19.30;99.90;;;;;;5074862;28;20040;-72
2023/08/13 08:04:25;;;;;;;12.20;2.92;;;19.40;99.90;;;;;;5074901;28;20043;-75
2023/08/13 08:06:51;;;;;;;12.82;2.40;;;19.60;99.90;;;;;;5074875;28;20036;-76
2023/08/13 08:09:16;;;;;;;8.70;2.20;;;19.70;99.90;;;;;;5074684;28;20040;-76
2023/08/13 08:11:42;;;;;;;12.52;2.50;;;19.90;99.90;;;;;;5074721;28;20076;-76
2023/08/13 08:14:07;;;;;;;9.63;2.20;;;20.00;99.90;;;;;;5074998;28;20028;-76
2023/08/13 08:16:33;;;;;;;13.23;2.75;;;20.10;99.90;;;;;;5058056;28;20453;-75
2023/08/13 08:18:59;;;;;;;7.85;2.00;;;20.20;99.90;;;;;;5074657;28;20051;-75
2023/08/13 08:21:25;;;;;;;11.75;2.30;;;20.30;99.90;;;;;;5075088;28;20044;-76
2023/08/13 08:23:50;;;;;;;14.35;2.65;;;20.40;99.90;;;;;;5074571;28;20028;-76
2023/08/13 08:26:16;;;;;;;9.30;2.00;;;20.40;99.90;;;;;;5074533;28;20119;-75
2023/08/13 08:28:42;;;;;;;11.50;2.45;;;20.40;99.90;;;;;;5058004;28;20111;-75
2023/08/13 08:31:07;;;;;;;10.20;2.22;;;20.40;99.90;;;;;;5074475;28;20051;-75
2023/08/13 08:33:33;;;;;;;12.20;2.40;;;20.40;99.90;;;;;;5074391;28;20040;-75
2023/08/13 08:35:59;;;;;;;12.77;2.72;;;20.30;99.90;;;;;;5057658;28;20045;-76
2023/08/13 08:38:24;;;;;;;13.27;2.10;;;20.30;99.90;;;;;;5074292;28;20093;-75
2023/08/13 08:40:52;;;;;;;7.03;2.20;;;20.40;99.90;;;;;;5074172;28;20046;-75
2023/08/13 08:43:18;;;;;;;8.63;2.25;;;20.50;99.90;;;;;;5074418;28;20111;-75
2023/08/13 08:45:44;;;;;;;8.68;2.53;;;20.60;99.90;;;;;;5074182;28;20524;-75
2023/08/13 08:48:11;;;;;;;7.70;1.85;;;20.80;99.90;;;;;;5057416;28;20047;-75
2023/08/13 08:50:37;;;;;;;10.80;2.25;;;21.00;99.90;;;;;;5057117;28;20041;-75
2023/08/13 08:53:03;;;;;;;9.98;2.28;;;21.20;99.90;;;;;;5057665;28;20123;-75
2023/08/13 08:55:29;;;;;;;10.07;2.40;;;21.30;99.90;;;;;;5074017;28;20054;-75
2023/08/13 08:57:55;;;;;;;7.55;1.85;;;21.50;99.90;;;;;;5073974;28;20036;-75
2023/08/13 09:00:21;;;;;;;8.75;1.88;;;21.60;99.90;;;;;;5073789;28;20044;-75
2023/08/13 09:02:47;;;;;;;9.88;1.92;;;21.80;99.90;;;;;;5073794;28;20044;-75
2023/08/13 09:05:12;;;;;;;7.65;1.75;;;22.00;99.90;;;;;;5057959;28;20044;-75
2023/08/13 09:07:44;;;;;;;10.05;1.95;;;22.00;99.90;;;;;;5073757;28;20032;-75
2023/08/13 09:10:10;;;;;;;9.38;2.28;;;22.10;99.90;;;;;;5056851;28;20048;-75
2023/08/13 09:12:37;;;;;;;7.93;1.90;;;22.10;99.90;;;;;;5073837;28;20048;-75
2023/08/13 09:15:05;;;;;;;11.57;2.58;;;22.30;99.90;;;;;;5056962;28;20079;-75
2023/08/13 09:17:31;;;;;;;10.90;2.45;;;22.40;99.90;;;;;;5057131;28;20044;-75
2023/08/13 09:19:56;;;;;;;12.25;2.10;;;22.50;99.90;;;;;;5073598;28;20047;-75
2023/08/13 09:22:22;;;;;;;10.98;2.30;;;22.70;99.90;;;;;;5073689;28;20508;-75
2023/08/13 09:24:49;;;;;;;7.53;1.95;;;22.60;99.90;;;;;;5056777;28;20040;-75
2023/08/13 09:27:15;;;;;;;10.45;1.83;;;22.50;99.90;;;;;;5056706;28;20052;-75
2023/08/13 09:29:41;;;;;;;8.40;2.00;;;22.40;99.90;;;;;;5073319;28;20505;-75
2023/08/13 09:32:07;;;;;;;5.80;1.83;;;22.40;99.90;;;;;;5073441;28;20040;-75
2023/08/13 09:34:33;;;;;;;9.40;1.67;;;22.50;99.90;;;;;;5073221;28;20040;-75
2023/08/13 09:36:59;;;;;;;10.35;1.52;;;22.80;99.90;;;;;;5073190;28;20505;-75
2023/08/13 09:39:27;;;;;;;6.00;1.70;;;22.90;99.90;;;;;;5073291;28;20045;-75
2023/08/13 09:41:53;;;;;;;7.35;1.83;;;23.00;99.90;;;;;;5073286;28;20032;-75
2023/08/13 09:44:21;;;;;;;7.65;1.67;;;23.30;99.90;;;;;;5056405;28;20536;-75
2023/08/13 09:46:55;;;;;;;7.22;1.50;;;23.40;99.90;;;;;;5073173;28;20048;-75
2023/08/13 09:49:27;;;;;;;9.85;1.70;;;23.50;99.90;;;;;;5073122;28;20044;-74
2023/08/13 09:51:56;;;;;;;8.70;1.70;;;23.40;99.90;;;;;;5073040;28;20435;-75
2023/08/13 09:54:41;;;;;;;9.50;1.45;;;23.40;99.90;;;;;;5072792;28;20083;-75
2023/08/13 09:57:09;;;;;;;8.38;1.95;;;23.50;99.90;;;;;;5072812;28;20079;-75
2023/08/13 09:59:36;;;;;;;9.23;1.80;;;23.80;99.90;;;;;;5072814;28;20040;-75
2023/08/13 10:02:08;;;;;;;7.38;1.73;;;24.00;99.30;;;;;;5071906;28;20039;-75
2023/08/13 10:04:38;;;;;;;5.43;1.27;;;24.30;98.30;;;;;;5072646;28;20048;-76
2023/08/13 10:07:05;;;;;;;7.28;1.77;;;24.50;97.40;;;;;;5072747;28;20076;-76
2023/08/13 10:09:32;;;;;;;5.22;1.10;;;24.50;97.20;;;;;;5072391;28;20032;-75
2023/08/13 10:11:59;;;;;;;8.50;1.67;;;24.70;96.80;;;;;;5072401;28;20040;-75
2023/08/13 10:14:25;;;;;;;5.45;1.30;;;24.70;96.80;;;;;;5072609;28;20128;-76
2023/08/13 10:16:51;;;;;;;6.97;1.35;;;24.70;95.00;;;;;;5072385;28;20037;-76
2023/08/13 10:19:17;;;;;;;5.20;1.20;;;24.90;95.70;;;;;;5072296;28;20123;-76
2023/08/13 10:21:54;;;;;;;5.15;1.40;;;24.90;95.00;;;;;;5072066;28;20046;-76
2023/08/13 10:24:21;;;;;;;5.22;1.40;;;25.00;94.90;;;;;;5055709;28;20086;-76
2023/08/13 10:26:46;;;;;;;4.50;1.13;;;25.00;94.10;;;;;;5055804;28;20051;-75
2023/08/13 10:29:19;;;;;;;5.32;1.20;;;24.90;94.00;;;;;;5072191;28;20513;-75
2023/08/13 10:31:58;;;;;;;7.32;1.02;;;25.00;93.90;;;;;;5072302;28;20059;-75
2023/08/13 10:34:52;;;;;;;5.90;1.30;;;24.90;92.80;;;;;;5072129;28;20054;-75
2023/08/13 10:37:22;;;;;;;5.60;1.35;;;24.80;92.90;;;;;;5072278;28;20383;-76
2023/08/13 10:40:08;;;;;;;7.03;1.60;;;24.60;93.80;;;;;;5072190;28;20386;-76
2023/08/13 10:42:36;;;;;;;4.97;1.10;;;24.40;94.30;;;;;;5071983;28;20041;-74
2023/08/13 10:45:06;;;;;;;5.15;1.10;;;24.30;94.70;;;;;;5055505;28;20044;-75
2023/08/13 10:47:46;;;;;;;3.60;0.98;;;24.30;94.10;;;;;;5072187;28;20493;-75
2023/08/13 10:50:28;;;;;;;4.97;1.10;;;24.40;93.10;;;;;;5072198;28;20042;-75
2023/08/13 10:53:22;;;;;;;3.73;0.80;;;24.40;92.50;;;;;;5055197;28;20041;-75
2023/08/13 10:55:52;;;;;;;5.55;0.90;;;24.40;92.30;;;;;;5066702;28;20135;-75
2023/08/13 10:58:41;;;;;;;5.32;1.10;;;24.20;92.50;;;;;;5071851;28;20040;-75
2023/08/13 11:01:19;;;;;;;3.08;0.88;;;24.20;93.00;;;;;;5066269;28;20056;-75
2023/08/13 11:03:55;;;;;;;5.30;1.20;;;24.30;93.50;;;;;;5071780;28;20404;-76
2023/08/13 11:06:22;;;;;;;5.00;1.15;;;24.40;93.30;;;;;;5055107;28;20071;-75
2023/08/13 11:08:48;;;;;;;4.68;1.10;;;24.40;92.20;;;;;;5071863;28;20043;-75
2023/08/13 11:11:18;;;;;;;4.13;0.90;;;24.20;93.00;;;;;;5071808;28;20045;-75
2023/08/13 11:13:44;;;;;;;4.65;1.00;;;24.20;92.60;;;;;;5074827;28;20615;-75
2023/08/13 11:16:11;;;;;;;5.30;0.90;;;24.10;92.30;;;;;;5075845;28;20513;-76
2023/08/13 11:18:37;;;;;;;3.95;0.98;;;24.00;92.40;;;;;;5075780;28;20052;-76
2023/08/13 11:21:03;;;;;;;4.10;0.80;;;24.00;92.80;;;;;;5075696;28;20048;-76
2023/08/13 11:23:28;;;;;;;5.03;0.80;;;23.90;92.60;;;;;;5058980;28;20044;-76
2023/08/13 11:25:55;;;;;;;5.53;1.17;;;23.80;92.80;;;;;;5075684;28;20037;-76
2023/08/13 11:28:22;;;;;;;6.05;0.95;;;23.60;93.00;;;;;;5075621;28;20501;-76
2023/08/13 11:30:49;;;;;;;5.13;0.82;;;23.50;93.50;;;;;;5058871;28;20138;-76
2023/08/13 11:33:15;;;;;;;6.88;0.90;;;23.30;93.70;;;;;;5075478;28;20041;-76
2023/08/13 11:35:41;;;;;;;5.10;1.20;;;23.20;94.60;;;;;;5075488;28;20073;-75
2023/08/13 11:38:07;;;;;;;5.18;1.13;;;23.00;94.90;;;;;;5075423;28;20041;-75
2023/08/13 11:40:33;;;;;;;8.63;1.40;;;22.90;95.10;;;;;;5075376;28;20119;-75
2023/08/13 11:43:00;;;;;;;4.63;1.27;;;22.80;95.30;;;;;;5075569;28;20162;-75
2023/08/13 11:45:30;;;;;;;4.50;1.20;;;22.80;95.80;;;;;;5075568;28;20445;-75
2023/08/13 11:48:12;;;;;;;3.40;0.90;;;22.80;96.50;;;;;;5075535;28;20037;-75
2023/08/13 11:50:39;;;;;;;4.38;1.23;;;22.80;96.40;;;;;;5075851;28;20045;-75
2023/08/13 11:53:09;;;;;;;7.22;1.63;;;22.90;96.60;;;;;;5075393;28;20080;-75
2023/08/13 11:55:37;;;;;;;5.50;1.30;;;22.90;96.70;;;;;;5075093;28;20433;-75
2023/08/13 11:58:02;;;;;;;6.95;1.30;;;23.00;96.60;;;;;;5075363;28;20036;-75
2023/08/13 12:00:28;;;;;;;6.07;1.20;;;23.10;96.60;;;;;;5074976;28;20056;-75
2023/08/13 12:02:58;;;;;;;5.13;1.52;;;23.20;96.70;;;;;;5075190;28;20032;-74
2023/08/13 12:05:31;;;;;;;5.68;1.08;;;23.30;97.00;;;;;;5074914;28;20409;-74
2023/08/13 12:08:04;;;;;;;6.00;1.77;;;23.40;96.70;;;;;;5058490;28;20148;-75
2023/08/13 12:10:31;;;;;;;8.55;1.60;;;23.50;97.00;;;;;;5058252;28;20039;-75
2023/08/13 12:12:57;;;;;;;5.55;1.15;;;23.50;96.60;;;;;;5074716;28;20389;-75
2023/08/13 12:15:24;;;;;;;4.47;1.20;;;23.50;96.60;;;;;;5074748;28;20040;-75
2023/08/13 12:17:51;;;;;;;6.90;1.60;;;23.40;96.10;;;;;;5058024;28;20052;-75
2023/08/13 12:20:16;;;;;;;7.13;1.40;;;23.30;95.80;;;;;;5057940;28;20555;-75
2023/08/13 12:22:42;;;;;;;8.38;1.58;;;23.30;96.10;;;;;;5074546;28;20040;-75
2023/08/13 12:25:08;;;;;;;6.35;1.60;;;23.30;96.40;;;;;;5057285;28;20032;-75
2023/08/13 12:27:34;;;;;;;10.52;1.70;;;23.20;96.70;;;;;;5074543;28;20036;-75
2023/08/13 12:29:59;;;;;;;8.60;1.65;;;23.20;96.60;;;;;;5074511;28;20579;-75
2023/08/13 12:32:25;;;;;;;10.00;1.70;;;23.20;96.90;;;;;;5074325;28;20071;-75
2023/08/13 12:34:51;;;;;;;9.50;1.80;;;23.20;97.30;;;;;;5057726;28;20101;-75
2023/08/13 12:37:16;;;;;;;7.10;1.80;;;23.20;97.40;;;;;;5074610;28;20082;-75
2023/08/13 12:39:42;;;;;;;5.85;1.60;;;23.30;96.70;;;;;;5074278;28;20451;-75